createdAt,value
2023-03-26T00:00:58.052Z,10.88
2023-03-26T00:03:45.192Z,10.93
2023-03-26T00:06:16.792Z,10.84
2023-03-26T00:08:49.225Z,10.88
2023-03-26T00:13:23.769Z,10.76
2023-03-26T00:15:56.904Z,10.57
2023-03-26T00:18:31.644Z,10.59
2023-03-26T00:21:06.648Z,10.55
2023-03-26T00:23:38.830Z,10.45
2023-03-26T00:26:13.109Z,10.48
2023-03-26T00:28:46.528Z,10.60
2023-03-26T00:31:20.710Z,10.63
2023-03-26T00:33:55.950Z,10.70
2023-03-26T00:36:28.861Z,10.62
2023-03-26T00:39:05.717Z,10.70
2023-03-26T00:41:43.073Z,10.62
2023-03-26T00:44:16.258Z,10.58
2023-03-26T00:46:49.540Z,10.53
2023-03-26T00:49:22.925Z,10.48
2023-03-26T00:51:59.354Z,10.40
2023-03-26T00:54:35.043Z,10.50
2023-03-26T00:57:10.545Z,10.39
2023-03-26T00:59:43.487Z,10.46
2023-03-26T01:02:18.905Z,10.37
2023-03-26T01:05:03.324Z,10.27
2023-03-26T01:07:37.041Z,10.28
2023-03-26T01:10:14.966Z,10.23
2023-03-26T01:12:48.132Z,10.29
2023-03-26T01:15:22.250Z,10.29
2023-03-26T01:17:57.930Z,10.35
2023-03-26T01:20:31.103Z,10.42
2023-03-26T01:23:07.676Z,10.50
2023-03-26T01:25:47.641Z,10.28
2023-03-26T01:28:22.128Z,10.36
2023-03-26T01:31:03.855Z,10.27
2023-03-26T01:33:46.636Z,10.05
2023-03-26T01:36:25.030Z,10.23
2023-03-26T01:39:02.779Z,10.11
2023-03-26T01:41:41.605Z,10.22
2023-03-26T01:44:22.259Z,10.18
2023-03-26T01:46:56.043Z,10.19
2023-03-26T01:49:30.416Z,10.09
2023-03-26T01:52:03.246Z,10.16
2023-03-26T01:54:37.975Z,10.15
2023-03-26T01:57:22.029Z,10.18
2023-03-26T02:00:23.452Z,10.31
2023-03-26T02:03:18.415Z,10.38
2023-03-26T02:05:59.059Z,10.31
2023-03-26T02:08:37.296Z,10.23
2023-03-26T02:11:14.300Z,10.17
2023-03-26T02:13:48.917Z,10.18
2023-03-26T02:16:22.506Z,10.27
2023-03-26T02:18:55.915Z,10.37
2023-03-26T02:21:29.282Z,10.40
2023-03-26T02:24:04.289Z,10.48
2023-03-26T02:26:40.931Z,10.48
2023-03-26T02:29:20.709Z,10.40
2023-03-26T02:31:54.038Z,10.45
2023-03-26T02:34:26.890Z,10.37
2023-03-26T02:37:00.883Z,10.27
2023-03-26T02:39:34.037Z,10.38
2023-03-26T02:42:11.254Z,10.38
2023-03-26T02:44:50.070Z,10.26
2023-03-26T02:47:26.151Z,10.16
2023-03-26T02:49:59.487Z,10.18
2023-03-26T02:53:06.401Z,9.95
2023-03-26T02:55:40.616Z,9.99
2023-03-26T02:58:17.586Z,9.91
2023-03-26T03:00:51.024Z,10.08
2023-03-26T03:03:38.000Z,9.94
2023-03-26T03:06:13.145Z,9.97
2023-03-26T03:08:51.458Z,9.99
2023-03-26T03:11:47.470Z,9.94
2023-03-26T03:14:20.338Z,9.91
2023-03-26T03:16:53.992Z,9.93
2023-03-26T03:19:26.376Z,9.83
2023-03-26T03:21:59.627Z,10.06
2023-03-26T03:24:34.129Z,9.97
2023-03-26T03:27:07.896Z,10.00
2023-03-26T03:29:44.712Z,9.90
2023-03-26T03:32:40.700Z,9.88
2023-03-26T03:35:13.803Z,9.98
2023-03-26T03:37:47.783Z,9.97
2023-03-26T03:40:21.069Z,9.88
2023-03-26T03:42:54.506Z,9.81
2023-03-26T03:45:35.261Z,9.89
2023-03-26T03:48:19.363Z,9.94
2023-03-26T03:50:53.887Z,9.92
2023-03-26T03:53:31.956Z,10.00
2023-03-26T03:56:10.393Z,9.96
2023-03-26T03:59:04.360Z,9.84
2023-03-26T04:01:39.442Z,9.89
2023-03-26T04:04:15.196Z,10.08
2023-03-26T04:07:01.984Z,10.00
2023-03-26T04:10:00.069Z,10.01
2023-03-26T04:12:34.792Z,10.34
2023-03-26T04:15:09.971Z,10.03
2023-03-26T04:17:43.987Z,9.93
2023-03-26T04:20:19.324Z,9.89
2023-03-26T04:22:53.007Z,9.87
2023-03-26T04:25:30.537Z,9.79
2023-03-26T04:28:17.693Z,9.94
2023-03-26T04:31:11.874Z,9.92
2023-03-26T04:33:49.845Z,9.91
2023-03-26T04:36:28.623Z,9.83
2023-03-26T04:39:05.332Z,10.00
2023-03-26T04:42:04.816Z,9.82
2023-03-26T04:44:46.265Z,9.79
2023-03-26T04:47:20.353Z,9.70
2023-03-26T04:49:53.044Z,9.79
2023-03-26T04:52:25.701Z,9.81
2023-03-26T04:55:25.672Z,9.78
2023-03-26T04:58:06.668Z,9.82
2023-03-26T05:01:16.827Z,9.69
2023-03-26T05:03:51.732Z,9.75
2023-03-26T05:06:25.241Z,9.78
2023-03-26T05:08:58.102Z,9.77
2023-03-26T05:11:48.532Z,9.82
2023-03-26T05:14:21.969Z,9.74
2023-03-26T05:16:55.136Z,9.89
2023-03-26T05:19:28.498Z,9.79
2023-03-26T05:22:01.051Z,9.69
2023-03-26T05:24:33.962Z,9.63
2023-03-26T05:27:06.961Z,9.65
2023-03-26T05:29:41.030Z,9.69
2023-03-26T05:32:13.791Z,9.57
2023-03-26T05:34:46.370Z,9.56
2023-03-26T05:37:24.581Z,9.51
2023-03-26T05:40:12.371Z,9.49
2023-03-26T05:42:52.363Z,9.65
2023-03-26T05:45:35.118Z,9.61
2023-03-26T05:48:17.733Z,9.55
2023-03-26T05:50:56.490Z,9.63
2023-03-26T05:53:30.528Z,9.68
2023-03-26T05:56:22.243Z,9.84
2023-03-26T05:59:30.377Z,9.73
2023-03-26T06:02:06.467Z,9.54
2023-03-26T06:04:40.967Z,9.66
2023-03-26T06:07:36.639Z,9.71
2023-03-26T06:10:19.470Z,9.90
2023-03-26T06:12:52.160Z,9.93
2023-03-26T06:15:24.952Z,9.55
2023-03-26T06:18:09.656Z,9.85
2023-03-26T06:20:54.478Z,9.80
2023-03-26T06:23:34.761Z,9.66
2023-03-26T06:26:07.596Z,9.92
2023-03-26T06:28:54.617Z,10.07
2023-03-26T06:31:47.674Z,10.03
2023-03-26T06:34:39.953Z,10.18
2023-03-26T06:37:12.377Z,10.28
2023-03-26T06:39:45.162Z,10.49
2023-03-26T06:42:21.357Z,10.55
2023-03-26T06:45:37.197Z,10.41
2023-03-26T06:48:27.949Z,10.38
2023-03-26T06:51:21.785Z,10.35
2023-03-26T06:54:14.251Z,10.47
2023-03-26T06:56:55.986Z,10.76
2023-03-26T06:59:28.507Z,10.72
2023-03-26T07:02:33.843Z,10.68
2023-03-26T07:05:45.395Z,10.82
2023-03-26T07:08:36.377Z,10.91
2023-03-26T07:11:37.988Z,10.90
2023-03-26T07:14:30.714Z,10.83
2023-03-26T07:17:15.368Z,10.84
2023-03-26T07:19:55.955Z,10.80
2023-03-26T07:22:32.529Z,10.90
2023-03-26T07:25:41.259Z,10.89
2023-03-26T07:28:21.911Z,10.94
2023-03-26T07:31:28.291Z,10.93
2023-03-26T07:34:32.648Z,10.83
2023-03-26T07:37:31.405Z,11.02
2023-03-26T07:40:52.421Z,10.95
2023-03-26T07:43:55.443Z,11.09
2023-03-26T07:46:53.614Z,11.17
2023-03-26T07:49:31.567Z,11.17
2023-03-26T07:52:25.417Z,11.14
2023-03-26T07:54:59.022Z,11.16
2023-03-26T07:58:00.184Z,11.07
2023-03-26T08:01:11.435Z,10.97
2023-03-26T08:04:24.008Z,11.01
2023-03-26T08:07:37.736Z,11.11
2023-03-26T08:10:28.545Z,11.10
2023-03-26T08:13:22.777Z,11.25
2023-03-26T08:16:06.717Z,11.20
2023-03-26T08:18:48.884Z,11.24
2023-03-26T08:21:25.559Z,11.29
2023-03-26T08:24:11.093Z,11.47
2023-03-26T08:26:53.247Z,11.43
2023-03-26T08:29:35.336Z,11.46
2023-03-26T08:32:10.877Z,11.55
2023-03-26T08:34:43.345Z,11.44
2023-03-26T08:37:17.736Z,11.22
2023-03-26T08:39:50.969Z,11.30
2023-03-26T08:42:46.405Z,11.50
2023-03-26T08:45:35.628Z,11.60
2023-03-26T08:48:37.649Z,11.69
2023-03-26T08:51:41.266Z,11.64
2023-03-26T08:54:47.353Z,11.60
2023-03-26T08:57:38.243Z,11.51
2023-03-26T09:00:40.977Z,11.67
2023-03-26T09:03:50.631Z,11.70
2023-03-26T09:06:43.158Z,11.68
2023-03-26T09:09:49.785Z,11.64
2023-03-26T09:13:16.292Z,11.80
2023-03-26T09:16:21.363Z,11.69
2023-03-26T09:19:31.866Z,11.78
2023-03-26T09:22:46.229Z,11.94
2023-03-26T09:29:08.849Z,11.91
2023-03-26T09:32:28.735Z,11.99
2023-03-26T09:35:23.022Z,11.92
2023-03-26T09:38:01.283Z,11.95
2023-03-26T09:40:45.051Z,11.95
2023-03-26T09:43:39.287Z,11.82
2023-03-26T09:46:25.486Z,12.04
2023-03-26T09:49:26.131Z,12.24
2023-03-26T09:52:13.301Z,12.01
2023-03-26T09:55:33.719Z,11.89
2023-03-26T09:58:29.261Z,11.79
2023-03-26T10:01:06.114Z,11.68
2023-03-26T10:03:46.904Z,11.50
2023-03-26T10:06:32.844Z,11.54
2023-03-26T10:09:39.605Z,11.69
2023-03-26T10:12:33.411Z,11.34
2023-03-26T10:15:20.512Z,11.41
2023-03-26T10:18:28.235Z,11.63
2023-03-26T10:21:07.474Z,11.41
2023-03-26T10:24:02.719Z,11.16
2023-03-26T10:27:09.253Z,11.27
2023-03-26T10:30:09.718Z,11.61
2023-03-26T10:32:51.389Z,11.75
2023-03-26T10:35:37.741Z,11.46
2023-03-26T10:38:19.817Z,11.52
2023-03-26T10:41:14.984Z,11.58
2023-03-26T10:44:14.520Z,11.73
2023-03-26T10:47:18.263Z,11.67
2023-03-26T10:50:22.719Z,11.58
2023-03-26T10:53:02.048Z,11.74
2023-03-26T10:55:39.135Z,11.58
2023-03-26T10:58:20.189Z,11.66
2023-03-26T11:00:58.418Z,11.79
2023-03-26T11:03:52.170Z,12.04
2023-03-26T11:06:35.538Z,12.45
2023-03-26T11:09:20.350Z,12.47
2023-03-26T11:11:59.158Z,12.34
2023-03-26T11:14:39.880Z,12.37
2023-03-26T11:17:40.198Z,12.53
2023-03-26T11:20:18.465Z,12.68
2023-03-26T11:23:01.924Z,12.75
2023-03-26T11:25:50.634Z,12.81
2023-03-26T11:29:03.674Z,12.65
2023-03-26T11:32:00.580Z,12.57
2023-03-26T11:34:38.565Z,12.72
2023-03-26T11:37:18.506Z,12.76
2023-03-26T11:39:56.689Z,12.99
2023-03-26T11:42:29.949Z,12.56
2023-03-26T11:45:04.816Z,12.53
2023-03-26T11:47:44.161Z,12.60
2023-03-26T11:50:23.992Z,12.71
2023-03-26T11:53:01.410Z,12.56
2023-03-26T11:55:35.599Z,12.56
2023-03-26T11:58:19.471Z,12.47
2023-03-26T12:00:54.359Z,12.39
2023-03-26T12:03:30.365Z,12.48
2023-03-26T12:06:03.743Z,12.24
2023-03-26T12:08:41.283Z,12.24
2023-03-26T12:11:26.856Z,12.24
2023-03-26T12:14:02.601Z,12.01
2023-03-26T12:16:36.378Z,12.03
2023-03-26T12:19:22.865Z,11.74
2023-03-26T12:21:55.875Z,11.72
2023-03-26T12:24:34.789Z,11.62
2023-03-26T12:27:28.533Z,11.76
2023-03-26T12:30:14.053Z,11.79
2023-03-26T12:32:47.223Z,11.72
2023-03-26T12:35:25.782Z,11.81
2023-03-26T12:38:15.559Z,11.86
2023-03-26T12:40:48.814Z,11.83
2023-03-26T12:44:49.666Z,11.97
2023-03-26T12:47:54.857Z,12.09
2023-03-26T12:49:23.224Z,11.93
2023-03-26T12:51:58.674Z,11.92
2023-03-26T12:54:48.426Z,12.05
2023-03-26T12:57:26.649Z,12.52
2023-03-26T13:00:28.935Z,12.42
2023-03-26T13:03:32.516Z,12.50
2023-03-26T13:06:23.817Z,12.66
2023-03-26T13:09:20.831Z,12.89
2023-03-26T13:12:03.831Z,13.11
2023-03-26T13:15:11.461Z,13.07
2023-03-26T13:17:52.028Z,12.92
2023-03-26T13:20:42.170Z,13.15
2023-03-26T13:23:23.546Z,13.35
2023-03-26T13:26:03.258Z,13.38
2023-03-26T13:28:43.139Z,13.16
2023-03-26T13:31:23.504Z,13.07
2023-03-26T13:34:05.431Z,12.92
2023-03-26T13:36:47.965Z,12.74
2023-03-26T13:39:32.443Z,12.80
2023-03-26T13:42:25.537Z,12.83
2023-03-26T13:45:08.314Z,12.85
2023-03-26T13:47:45.619Z,12.92
2023-03-26T13:50:26.467Z,12.97
2023-03-26T13:53:05.786Z,12.88
2023-03-26T13:55:41.769Z,12.91
2023-03-26T13:58:23.756Z,12.88
2023-03-26T14:01:03.767Z,12.92
2023-03-26T14:03:46.387Z,13.00
2023-03-26T14:06:34.189Z,13.08
2023-03-26T14:09:13.919Z,13.27
2023-03-26T14:11:56.900Z,13.31
2023-03-26T14:14:38.700Z,13.37
2023-03-26T14:17:18.725Z,13.53
2023-03-26T14:20:24.294Z,13.34
2023-03-26T14:23:24.536Z,12.90
2023-03-26T14:26:15.866Z,13.27
2023-03-26T14:29:29.398Z,13.47
2023-03-26T14:32:14.169Z,13.46
2023-03-26T14:35:04.903Z,13.34
2023-03-26T14:38:01.272Z,13.26
2023-03-26T14:40:48.545Z,13.17
2023-03-26T14:43:52.886Z,13.04
2023-03-26T14:46:40.968Z,13.02
2023-03-26T14:49:48.455Z,12.97
2023-03-26T14:52:29.644Z,12.95
2023-03-26T14:55:08.756Z,12.99
2023-03-26T14:58:13.758Z,12.95
2023-03-26T15:01:17.432Z,12.76
2023-03-26T15:04:37.204Z,12.55
2023-03-26T15:07:49.237Z,12.67
2023-03-26T15:10:51.717Z,12.78
2023-03-26T15:13:44.558Z,12.51
2023-03-26T15:16:38.778Z,12.71
2023-03-26T15:19:56.498Z,12.96
2023-03-26T15:23:10.790Z,12.82
2023-03-26T15:26:30.729Z,12.80
2023-03-26T15:29:21.640Z,12.80
2023-03-26T15:32:26.927Z,12.81
2023-03-26T15:35:23.810Z,12.76
2023-03-26T15:38:15.535Z,12.70
2023-03-26T15:40:58.057Z,12.68
2023-03-26T15:44:24.954Z,12.63
2023-03-26T15:47:03.121Z,12.58
2023-03-26T15:49:48.395Z,12.56
2023-03-26T15:52:29.729Z,12.62
2023-03-26T15:55:07.007Z,12.58
2023-03-26T15:57:47.321Z,12.50
2023-03-26T16:00:26.565Z,12.53
2023-03-26T16:03:21.688Z,12.54
2023-03-26T16:06:21.943Z,12.47
2023-03-26T16:09:08.052Z,12.37
2023-03-26T16:11:54.143Z,12.29
2023-03-26T16:14:42.570Z,12.18
2023-03-26T16:17:20.862Z,12.25
2023-03-26T16:20:15.366Z,12.23
2023-03-26T16:23:00.770Z,12.22
2023-03-26T16:25:35.994Z,12.18
2023-03-26T16:28:35.967Z,12.20
2023-03-26T16:31:36.854Z,12.17
2023-03-26T16:34:29.439Z,12.16
2023-03-26T16:37:06.684Z,12.17
2023-03-26T16:39:44.437Z,12.18
2023-03-26T16:42:41.281Z,12.20
2023-03-26T16:45:24.114Z,12.14
2023-03-26T16:48:08.333Z,12.14
2023-03-26T16:50:49.767Z,12.18
2023-03-26T16:53:38.664Z,12.13
2023-03-26T16:56:18.396Z,12.12
2023-03-26T16:59:01.902Z,12.01
2023-03-26T17:01:48.285Z,11.98
2023-03-26T17:04:23.584Z,11.97
2023-03-26T17:07:09.789Z,11.93
2023-03-26T17:09:55.649Z,11.94
2023-03-26T17:12:38.307Z,11.94
2023-03-26T17:15:22.694Z,11.86
2023-03-26T17:18:25.845Z,11.89
2023-03-26T17:21:05.322Z,11.87
2023-03-26T17:24:04.174Z,11.79
2023-03-26T17:26:52.884Z,11.70
2023-03-26T17:29:32.043Z,11.72
2023-03-26T17:32:10.494Z,11.72
2023-03-26T17:35:04.371Z,11.65
2023-03-26T17:37:48.239Z,11.52
2023-03-26T17:40:51.071Z,11.52
2023-03-26T17:43:46.681Z,11.51
2023-03-26T17:46:33.347Z,11.46
2023-03-26T17:49:13.496Z,11.41
2023-03-26T17:51:53.436Z,11.28
2023-03-26T17:54:32.576Z,11.33
2023-03-26T17:57:08.248Z,11.18
2023-03-26T17:59:42.074Z,11.19
2023-03-26T18:02:20.426Z,11.13
2023-03-26T18:04:55.191Z,11.13
2023-03-26T18:07:45.276Z,11.11
2023-03-26T18:10:35.362Z,11.06
2023-03-26T18:13:23.904Z,11.10
2023-03-26T18:16:10.535Z,11.07
2023-03-26T18:18:49.576Z,11.03
2023-03-26T18:21:31.770Z,10.93
2023-03-26T18:24:05.919Z,11.00
2023-03-26T18:26:41.214Z,11.01
2023-03-26T18:29:21.391Z,11.02
2023-03-26T18:31:57.735Z,11.04
2023-03-26T18:34:32.832Z,11.02
2023-03-26T18:37:14.734Z,10.97
2023-03-26T18:40:00.199Z,10.96
2023-03-26T18:42:35.459Z,10.91
2023-03-26T18:45:17.693Z,10.87
2023-03-26T18:47:51.812Z,10.84
2023-03-26T18:50:27.431Z,10.78
2023-03-26T18:53:01.485Z,10.58
2023-03-26T18:55:39.654Z,10.70
2023-03-26T18:58:26.628Z,10.66
2023-03-26T19:01:01.989Z,10.62
2023-03-26T19:03:38.324Z,10.62
2023-03-26T19:06:13.803Z,10.62
2023-03-26T19:08:48.176Z,10.58
2023-03-26T19:11:21.147Z,10.57
2023-03-26T19:14:07.479Z,10.57
2023-03-26T19:16:44.179Z,10.56
2023-03-26T19:19:20.766Z,10.53
2023-03-26T19:21:54.418Z,10.59
2023-03-26T19:24:28.421Z,10.54
2023-03-26T19:27:01.342Z,10.52
2023-03-26T19:29:36.462Z,10.56
2023-03-26T19:32:16.892Z,10.50
2023-03-26T19:34:50.818Z,10.50
2023-03-26T19:37:26.952Z,10.50
2023-03-26T19:40:07.676Z,10.48
2023-03-26T19:42:43.718Z,10.38
2023-03-26T19:45:21.925Z,10.44
2023-03-26T19:48:07.493Z,10.41
2023-03-26T19:50:57.764Z,10.32
2023-03-26T19:53:35.834Z,10.19
2023-03-26T19:56:18.746Z,10.15
2023-03-26T19:58:52.133Z,10.14
2023-03-26T20:01:27.331Z,10.09
2023-03-26T20:04:02.430Z,10.02
2023-03-26T20:09:28.169Z,9.91
2023-03-26T20:12:00.621Z,9.87
2023-03-26T20:14:33.122Z,9.86
2023-03-26T20:17:06.108Z,9.83
2023-03-26T20:19:39.127Z,9.82
2023-03-26T20:22:18.064Z,9.80
2023-03-26T20:24:51.817Z,9.77
2023-03-26T20:27:24.429Z,9.76
2023-03-26T20:29:57.053Z,9.73
2023-03-26T20:32:30.367Z,9.72
2023-03-26T20:35:04.258Z,9.69
2023-03-26T20:37:37.007Z,9.67
2023-03-26T20:40:12.546Z,9.65
2023-03-26T20:42:46.442Z,9.65
2023-03-26T20:45:22.879Z,9.63
2023-03-26T20:47:55.577Z,9.61
2023-03-26T20:50:28.837Z,9.58
2023-03-26T20:53:03.063Z,9.56
2023-03-26T20:55:36.680Z,9.56
2023-03-26T20:58:10.854Z,9.57
2023-03-26T21:00:46.591Z,9.56
2023-03-26T21:03:20.985Z,9.57
2023-03-26T21:05:53.884Z,9.56
2023-03-26T21:08:30.265Z,9.55
2023-03-26T21:11:04.165Z,9.54
2023-03-26T21:13:41.402Z,9.53
2023-03-26T21:16:15.713Z,9.52
2023-03-26T21:18:49.217Z,9.45
2023-03-26T21:21:39.060Z,9.50
2023-03-26T21:24:19.475Z,9.54
2023-03-26T21:27:00.155Z,9.56
2023-03-26T21:29:33.497Z,9.57
2023-03-26T21:32:07.254Z,9.54
2023-03-26T21:34:47.817Z,9.50
2023-03-26T21:37:29.405Z,9.42
2023-03-26T21:40:13.164Z,9.29
2023-03-26T21:42:47.883Z,9.34
2023-03-26T21:45:22.907Z,9.32
2023-03-26T21:47:56.516Z,9.32
2023-03-26T21:50:30.081Z,9.29
2023-03-26T21:53:03.571Z,9.26
2023-03-26T21:55:44.669Z,9.23
2023-03-26T21:58:29.808Z,9.33
2023-03-26T22:01:18.699Z,9.27
2023-03-26T22:04:02.066Z,9.26
2023-03-26T22:06:42.820Z,9.26
2023-03-26T22:09:18.496Z,9.25
2023-03-26T22:11:53.200Z,9.25
2023-03-26T22:14:26.047Z,9.13
2023-03-26T22:16:58.811Z,9.17
2023-03-26T22:19:32.977Z,9.08
2023-03-26T22:22:05.935Z,9.08
2023-03-26T22:24:39.215Z,9.09
2023-03-26T22:27:13.022Z,9.05
2023-03-26T22:29:47.697Z,9.02
2023-03-26T22:32:20.364Z,8.93
2023-03-26T22:34:53.395Z,8.92
2023-03-26T22:37:26.083Z,8.91
2023-03-26T22:39:58.669Z,8.96
2023-03-26T22:42:31.205Z,8.84
2023-03-26T22:45:04.348Z,8.89
2023-03-26T22:47:37.361Z,8.88
2023-03-26T22:50:12.114Z,8.83
2023-03-26T22:52:45.071Z,8.85
2023-03-26T22:55:28.602Z,8.74
2023-03-26T22:58:02.176Z,8.80
2023-03-26T23:00:35.035Z,8.79
2023-03-26T23:03:08.453Z,8.74
2023-03-26T23:05:41.906Z,8.83
2023-03-26T23:08:14.465Z,8.80
2023-03-26T23:10:47.092Z,8.80
2023-03-26T23:13:23.229Z,8.77
2023-03-26T23:15:58.096Z,8.76
2023-03-26T23:18:31.839Z,8.67
2023-03-26T23:21:06.128Z,8.67
2023-03-26T23:23:44.963Z,8.76
2023-03-26T23:26:18.121Z,8.78
2023-03-26T23:28:51.244Z,8.75
2023-03-26T23:31:25.559Z,8.71
2023-03-26T23:33:58.091Z,8.62
2023-03-26T23:36:30.895Z,8.61
2023-03-26T23:39:04.830Z,8.49
2023-03-26T23:41:38.134Z,8.59
2023-03-26T23:44:14.644Z,8.53
2023-03-26T23:46:49.004Z,8.54
2023-03-26T23:49:24.416Z,8.53
2023-03-26T23:52:04.907Z,8.51
2023-03-26T23:54:42.515Z,8.48
2023-03-26T23:57:19.923Z,8.50
2023-03-26T23:59:53.643Z,8.52
